Time;durP1;ratioP1;P1;durP2;ratioP2;P2;SDS_P1;SDS_P2;PMS_P1;PMS_P2;Temp;Humidity;BMP_temperature;BMP_pressure;BME280_temperature;BME280_humidity;BME280_pressure;Samples;Min_cycle;Max_cycle;Signal;HPM_P1;HPM_P2
2023/12/02 00:02:00;;;;;;;;;69.75;50.75;;;;;-143.90;100.00;75809.03;4899219;28;103992;-74
2023/12/02 00:04:27;;;;;;;;;70.50;51.75;;;;;-143.90;100.00;75813.16;4898909;28;103130;-74
2023/12/02 00:06:54;;;;;;;;;65.00;52.00;;;;;-143.90;100.00;75813.16;4898323;28;103448;-74
2023/12/02 00:09:20;;;;;;;;;65.00;52.25;;;;;-143.90;100.00;75800.75;4901568;28;102076;-74
2023/12/02 00:11:50;;;;;;;;;80.75;59.00;;;;;-143.90;100.00;75804.91;4900461;28;105655;-74
2023/12/02 00:14:17;;;;;;;;;77.00;55.00;;;;;-143.90;100.00;75802.81;4899845;28;102809;-74
2023/12/02 00:16:43;;;;;;;;;86.00;60.50;;;;;-143.90;100.00;75811.09;4897416;28;107734;-74
2023/12/02 00:19:11;;;;;;;;;82.25;60.50;;;;;-143.90;100.00;75804.91;4899194;28;101995;-74
2023/12/02 00:21:38;;;;;;;;;76.50;56.75;;;;;-143.90;100.00;75806.97;4900053;28;104165;-74
2023/12/02 00:24:05;;;;;;;;;83.50;59.00;;;;;-143.90;100.00;75815.22;4899619;28;103125;-74
2023/12/02 00:26:31;;;;;;;;;77.25;59.25;;;;;-143.90;100.00;75809.03;4899518;28;102708;-74
2023/12/02 00:28:58;;;;;;;;;72.75;53.00;;;;;-143.90;100.00;75809.03;4900017;28;102508;-75
2023/12/02 00:31:25;;;;;;;;;76.25;55.00;;;;;-143.90;100.00;75813.16;4896607;28;103903;-74
2023/12/02 00:33:51;;;;;;;;;71.00;54.00;;;;;-143.90;100.00;75809.03;4896106;28;103504;-74
2023/12/02 00:36:18;;;;;;;;;78.75;54.25;;;;;-143.90;100.00;75806.97;4898643;28;102337;-74
2023/12/02 00:38:44;;;;;;;;;64.75;48.50;;;;;-143.90;100.00;75804.91;4897717;28;103155;-74
2023/12/02 00:41:11;;;;;;;;;64.75;50.50;;;;;-143.90;100.00;75784.22;4899634;28;104124;-74
2023/12/02 00:43:38;;;;;;;;;84.25;57.25;;;;;-143.90;100.00;75780.09;4900911;28;102223;-75
2023/12/02 00:46:05;;;;;;;;;78.00;59.25;;;;;-143.90;100.00;75792.50;4899821;28;103770;-75
2023/12/02 00:48:32;;;;;;;;;71.75;52.25;;;;;-143.90;100.00;75784.22;4900435;28;101985;-74
2023/12/02 00:50:58;;;;;;;;;72.50;49.50;;;;;-143.90;100.00;75784.22;4899232;28;104001;-74
2023/12/02 00:53:25;;;;;;;;;78.00;58.25;;;;;-143.90;100.00;75780.09;4898837;28;102779;-74
2023/12/02 00:55:52;;;;;;;;;74.75;50.00;;;;;-143.90;100.00;75790.41;4898216;28;102208;-75
2023/12/02 00:58:18;;;;;;;;;74.25;57.50;;;;;-143.90;100.00;75819.38;4900403;28;106626;-75
2023/12/02 01:00:57;;;;;;;;;81.00;56.00;;;;;-143.90;100.00;75829.72;4899591;28;103809;-75
2023/12/02 01:03:23;;;;;;;;;71.00;55.00;;;;;-143.90;100.00;75829.72;4897738;28;102604;-75
2023/12/02 01:05:50;;;;;;;;;75.75;52.50;;;;;-143.90;100.00;75817.31;4899999;28;101939;-74
2023/12/02 01:08:17;;;;;;;;;69.75;52.75;;;;;-143.90;100.00;75817.31;4899509;28;102502;-74
2023/12/02 01:10:43;;;;;;;;;82.00;59.25;;;;;-143.90;100.00;75819.38;4898012;28;106444;-74
2023/12/02 01:13:10;;;;;;;;;50.33;40.00;;;;;-143.90;100.00;75811.09;4898667;28;102422;-73
2023/12/02 01:15:37;;;;;;;;;64.33;47.67;;;;;-143.90;100.00;75800.75;4902693;28;102310;-75
2023/12/02 01:18:04;;;;;;;;;59.33;44.33;;;;;-143.90;100.00;75792.50;4899981;28;102034;-75
2023/12/02 01:20:31;;;;;;;;;48.33;37.33;;;;;-143.90;100.00;75788.34;4896253;28;104006;-75
2023/12/02 01:22:57;;;;;;;;;59.67;48.33;;;;;-143.90;100.00;75778.00;4898983;28;102294;-75
2023/12/02 01:25:24;;;;;;;;;56.67;46.00;;;;;-143.90;100.00;75775.94;4899232;28;102027;-74
2023/12/02 01:27:51;;;;;;;;;75.75;57.00;;;;;-143.90;100.00;75780.09;4898549;28;102493;-74
2023/12/02 01:30:17;;;;;;;;;60.00;44.67;;;;;-143.90;100.00;75771.81;4897924;28;104203;-75
2023/12/02 01:32:44;;;;;;;;;63.33;47.33;;;;;-143.90;100.00;75755.28;4896351;28;102216;-74
2023/12/02 01:35:10;;;;;;;;;61.67;47.00;;;;;-143.90;100.00;75763.53;4896166;28;102503;-73
2023/12/02 01:37:37;;;;;;;;;70.75;51.00;;;;;-143.90;100.00;75771.81;4901366;28;102331;-75
2023/12/02 01:40:04;;;;;;;;;69.75;49.75;;;;;-143.90;100.00;75775.94;4896452;28;110463;-75
2023/12/02 01:42:31;;;;;;;;;74.00;49.25;;;;;-143.90;100.00;75775.94;4897611;28;102522;-74
2023/12/02 01:44:58;;;;;;;;;69.75;53.75;;;;;-143.90;100.00;75782.16;4898167;28;103041;-75
2023/12/02 01:47:24;;;;;;;;;67.00;49.00;;;;;-143.90;100.00;75788.34;4897914;28;103712;-75
2023/12/02 01:49:53;;;;;;;;;64.67;47.33;;;;;-143.90;100.00;75786.28;4898388;28;104202;-75
2023/12/02 01:52:20;;;;;;;;;60.25;39.50;;;;;-143.90;100.00;75780.09;4898129;28;104094;-74
2023/12/02 01:54:47;;;;;;;;;66.75;49.50;;;;;-143.90;100.00;75800.75;4898128;28;102505;-75
2023/12/02 01:57:13;;;;;;;;;60.00;47.33;;;;;-143.90;100.00;75794.56;4895275;28;102348;-75
2023/12/02 01:59:48;;;;;;;;;79.25;55.50;;;;;-143.90;100.00;75800.75;4895546;28;104229;-74
2023/12/02 02:02:14;;;;;;;;;74.33;50.67;;;;;-143.90;100.00;75784.22;4894698;28;102192;-75
2023/12/02 02:04:41;;;;;;;;;61.50;44.75;;;;;-143.90;100.00;75800.75;4894127;28;102405;-75
2023/12/02 02:07:08;;;;;;;;;50.33;39.00;;;;;-143.90;100.00;75804.91;4899452;28;102063;-74
2023/12/02 02:09:44;;;;;;;;;56.67;46.67;;;;;-143.90;100.00;75798.69;4900843;28;108839;-74
2023/12/02 02:12:11;;;;;;;;;61.67;40.67;;;;;-143.90;100.00;75809.03;4896467;28;102771;-74
2023/12/02 02:14:38;;;;;;;;;51.00;44.33;;;;;-143.90;100.00;75800.75;4901726;28;102031;-75
2023/12/02 02:17:04;;;;;;;;;58.67;45.67;;;;;-143.90;100.00;75794.56;4900733;28;102004;-75
2023/12/02 02:19:32;;;;;;;;;60.33;45.33;;;;;-143.90;100.00;75798.69;4901604;28;104144;-75
2023/12/02 02:21:58;;;;;;;;;54.33;44.00;;;;;-143.90;100.00;75788.34;4896838;28;102688;-74
2023/12/02 02:24:25;;;;;;;;;71.75;49.25;;;;;-143.90;100.00;75775.94;4894343;28;104084;-74
2023/12/02 02:26:52;;;;;;;;;62.33;46.00;;;;;-143.90;100.00;75788.34;4900594;28;103187;-74
2023/12/02 02:29:18;;;;;;;;;48.67;41.67;;;;;-143.90;100.00;75796.63;4895251;28;104029;-75
2023/12/02 02:31:45;;;;;;;;;57.00;46.00;;;;;-143.90;100.00;75788.34;4898552;28;103235;-74
2023/12/02 02:34:12;;;;;;;;;39.33;27.33;;;;;-143.90;100.00;75763.53;4896108;28;102166;-72
2023/12/02 02:36:39;;;;;;;;;51.33;39.67;;;;;-143.90;100.00;75757.34;4902229;28;102183;-75
2023/12/02 02:39:07;;;;;;;;;44.00;32.67;;;;;-143.90;100.00;75761.47;4897634;28;108910;-75
2023/12/02 02:41:34;;;;;;;;;52.33;42.00;;;;;-143.90;100.00;75761.47;4900680;28;102239;-75
2023/12/02 02:44:01;;;;;;;;;57.33;45.33;;;;;-143.90;100.00;75780.09;4898347;28;102229;-75
2023/12/02 02:46:28;;;;;;;;;47.67;39.33;;;;;-143.90;100.00;75786.28;4900365;28;102315;-76
2023/12/02 02:48:54;;;;;;;;;40.00;29.33;;;;;-143.90;100.00;75780.09;4896738;28;104156;-74
2023/12/02 02:51:21;;;;;;;;;48.00;33.00;;;;;-143.90;100.00;75780.09;4901175;28;102536;-74
2023/12/02 02:53:48;;;;;;;;;53.00;43.33;;;;;-143.90;100.00;75771.81;4900055;28;101915;-74
2023/12/02 02:56:14;;;;;;;;;45.33;38.33;;;;;-143.90;100.00;75771.81;4902611;28;102541;-74
2023/12/02 02:58:41;;;;;;;;;50.00;37.00;;;;;-143.90;100.00;75771.81;4901930;28;104255;-73
2023/12/02 03:01:07;;;;;;;;;51.00;39.00;;;;;-143.90;100.00;75775.94;4903423;28;102459;-75
2023/12/02 03:03:34;;;;;;;;;38.33;26.67;;;;;-143.90;100.00;75771.81;4901205;28;102959;-73
2023/12/02 03:06:01;;;;;;;;;42.33;34.33;;;;;-143.90;100.00;75769.75;4901463;28;102441;-74
2023/12/02 03:08:27;;;;;;;;;36.00;28.33;;;;;-143.90;100.00;75763.53;4901264;28;104046;-74
2023/12/02 03:10:54;;;;;;;;;37.67;31.33;;;;;-143.90;100.00;75757.34;4901770;28;102321;-74
2023/12/02 03:13:20;;;;;;;;;36.00;29.67;;;;;-143.90;100.00;75755.28;4901033;28;102825;-73
2023/12/02 03:15:47;;;;;;;;;59.00;38.00;;;;;-143.90;100.00;75751.13;4902451;28;103113;-74
2023/12/02 03:18:14;;;;;;;;;45.67;34.33;;;;;-143.90;100.00;75759.41;4897138;28;104180;-74
2023/12/02 03:20:41;;;;;;;;;44.67;34.00;;;;;-143.90;100.00;75769.75;4901103;28;102536;-75
2023/12/02 03:23:07;;;;;;;;;35.00;29.33;;;;;-143.90;100.00;75771.81;4903085;28;102329;-74
2023/12/02 03:25:34;;;;;;;;;24.67;20.67;;;;;-143.90;100.00;75771.81;4902580;28;102294;-77
2023/12/02 03:28:01;;;;;;;;;27.67;19.67;;;;;-143.90;100.00;75775.94;4900757;28;104090;-76
2023/12/02 03:30:27;;;;;;;;;21.67;18.00;;;;;-143.90;100.00;75775.94;4898615;28;102222;-74
2023/12/02 03:32:54;;;;;;;;;29.33;25.67;;;;;-143.90;100.00;75767.69;4900362;28;102218;-74
2023/12/02 03:35:21;;;;;;;;;38.00;29.33;;;;;-143.90;100.00;75767.69;4896752;28;102444;-74
2023/12/02 03:37:47;;;;;;;;;30.67;25.67;;;;;-143.90;100.00;75763.53;4900390;28;104211;-77
2023/12/02 03:40:14;;;;;;;;;31.67;24.00;;;;;-143.90;100.00;75767.69;4897886;28;102192;-76
2023/12/02 03:42:40;;;;;;;;;40.00;31.33;;;;;-143.90;100.00;75771.81;4900404;28;102404;-72
2023/12/02 03:45:08;;;;;;;;;34.67;31.33;;;;;-143.90;100.00;75769.75;4916782;28;103567;-74
2023/12/02 03:47:34;;;;;;;;;36.00;30.67;;;;;-143.90;100.00;75767.69;4898202;28;103973;-73
2023/12/02 03:50:01;;;;;;;;;37.67;27.00;;;;;-143.90;100.00;75759.41;4899889;28;103664;-74
2023/12/02 03:52:28;;;;;;;;;41.00;34.67;;;;;-143.90;100.00;75759.41;4897329;28;101961;-76
2023/12/02 03:54:54;;;;;;;;;39.67;31.33;;;;;-143.90;100.00;75771.81;4899975;28;101982;-74
2023/12/02 03:57:21;;;;;;;;;31.67;28.33;;;;;-143.90;100.00;75771.81;4896450;28;104126;-74
2023/12/02 03:59:48;;;;;;;;;32.33;27.00;;;;;-143.90;100.00;75786.28;4896214;28;102125;-74
2023/12/02 04:02:15;;;;;;;;;25.67;23.67;;;;;-143.90;100.00;75765.59;4896213;28;101952;-74
2023/12/02 04:04:42;;;;;;;;;32.00;24.00;;;;;-143.90;100.00;75759.41;4898582;28;101921;-73
2023/12/02 04:07:09;;;;;;;;;38.00;25.00;;;;;-143.90;100.00;75769.75;4900985;28;104133;-75
2023/12/02 04:09:36;;;;;;;;;24.33;22.67;;;;;-143.90;100.00;75782.16;4900251;28;102627;-75
2023/12/02 04:12:03;;;;;;;;;25.00;17.33;;;;;-143.90;100.00;75782.16;4899751;28;103089;-75
2023/12/02 04:14:29;;;;;;;;;21.00;16.67;;;;;-143.90;100.00;75784.22;4900363;28;102418;-75
2023/12/02 04:16:56;;;;;;;;;18.33;14.33;;;;;-143.90;100.00;75778.00;4899636;28;104193;-75
2023/12/02 04:19:22;;;;;;;;;17.00;16.33;;;;;-143.90;100.00;75771.81;4900362;28;102351;-75
2023/12/02 04:21:49;;;;;;;;;12.00;11.00;;;;;-143.90;100.00;75757.34;4898072;28;103175;-75
2023/12/02 04:24:16;;;;;;;;;23.00;17.00;;;;;-143.90;100.00;75759.41;4900638;28;102158;-75
2023/12/02 04:26:42;;;;;;;;;26.67;24.67;;;;;-143.90;100.00;75771.81;4899331;28;104263;-74
2023/12/02 04:29:09;;;;;;;;;23.33;23.00;;;;;-143.90;100.00;75771.81;4901204;28;103356;-75
2023/12/02 04:31:36;;;;;;;;;14.33;11.67;;;;;-143.90;100.00;75767.69;4899610;28;102039;-75
2023/12/02 04:34:02;;;;;;;;;20.00;17.00;;;;;-143.90;100.00;75771.81;4899942;28;101970;-74
2023/12/02 04:36:30;;;;;;;;;27.67;22.33;;;;;-143.90;100.00;75773.88;4899659;28;104165;-75
2023/12/02 04:38:57;;;;;;;;;39.33;29.00;;;;;-143.90;100.00;75784.22;4899862;28;103606;-74
2023/12/02 04:41:24;;;;;;;;;27.33;22.33;;;;;-143.90;100.00;75775.94;4900747;28;102003;-74
2023/12/02 04:43:51;;;;;;;;;22.00;18.00;;;;;-143.90;100.00;75775.94;4898825;28;102036;-74
2023/12/02 04:46:17;;;;;;;;;23.00;19.33;;;;;-143.90;100.00;75769.75;4900620;28;104179;-75
2023/12/02 04:48:44;;;;;;;;;34.33;25.00;;;;;-143.90;100.00;75765.59;4899398;28;102422;-74
2023/12/02 04:51:10;;;;;;;;;27.33;20.67;;;;;-143.90;100.00;75771.81;4899819;28;102419;-71
2023/12/02 04:53:37;;;;;;;;;24.33;20.00;;;;;-143.90;100.00;75773.88;4903351;28;102275;-75
2023/12/02 04:56:05;;;;;;;;;22.67;20.67;;;;;-143.90;100.00;75767.69;4898986;28;104000;-75
2023/12/02 04:58:31;;;;;;;;;16.00;15.00;;;;;-143.90;100.00;75759.41;4897095;28;103463;-74
2023/12/02 05:00:58;;;;;;;;;24.00;20.00;;;;;-143.90;100.00;75744.94;4900282;28;102074;-74
2023/12/02 05:03:25;;;;;;;;;28.00;23.67;;;;;-143.90;100.00;75742.88;4898539;28;102771;-75
2023/12/02 05:05:51;;;;;;;;;19.33;15.67;;;;;-143.90;100.00;75759.41;4899009;28;104254;-75
2023/12/02 05:08:18;;;;;;;;;23.00;17.33;;;;;-143.90;100.00;75775.94;4899366;28;102229;-74
2023/12/02 05:10:45;;;;;;;;;19.00;14.00;;;;;-143.90;100.00;75775.94;4895761;28;101926;-74
2023/12/02 05:13:11;;;;;;;;;14.33;14.00;;;;;-143.90;100.00;75771.81;4900054;28;102585;-73
2023/12/02 05:15:39;;;;;;;;;20.00;15.00;;;;;-143.90;100.00;75773.88;4900966;28;104098;-74
2023/12/02 05:18:10;;;;;;;;;12.00;11.00;;;;;-143.90;100.00;75780.09;4898797;28;102078;-75
2023/12/02 05:20:36;;;;;;;;;20.00;15.00;;;;;-143.90;100.00;75775.94;4896109;28;103525;-75
2023/12/02 05:23:03;;;;;;;;;19.67;14.67;;;;;-143.90;100.00;75765.59;4900915;28;102118;-74
2023/12/02 05:25:29;;;;;;;;;17.67;12.67;;;;;-143.90;100.00;75767.69;4897847;28;103978;-74
2023/12/02 05:27:56;;;;;;;;;15.67;11.00;;;;;-143.90;100.00;75765.59;4903180;28;102782;-74
2023/12/02 05:30:22;;;;;;;;;32.00;19.67;;;;;-143.90;100.00;75763.53;4897934;28;101876;-75
2023/12/02 05:32:51;;;;;;;;;18.33;16.33;;;;;-143.90;100.00;75773.88;4900884;28;102419;-75
2023/12/02 05:35:19;;;;;;;;;25.00;18.67;;;;;-143.90;100.00;75792.50;4898838;28;104050;-75
2023/12/02 05:37:46;;;;;;;;;18.00;17.00;;;;;-143.90;100.00;75792.50;4898850;28;102669;-75
2023/12/02 05:40:13;;;;;;;;;15.67;11.00;;;;;-143.90;100.00;75796.63;4897030;28;102196;-75
2023/12/02 05:42:39;;;;;;;;;16.67;13.67;;;;;-143.90;100.00;75788.34;4900807;28;102038;-75
2023/12/02 05:45:07;;;;;;;;;16.33;11.00;;;;;-143.90;100.00;75798.69;4897529;28;108830;-74
2023/12/02 05:47:33;;;;;;;;;13.00;12.33;;;;;-143.90;100.00;75788.34;4899356;28;102247;-75
2023/12/02 05:50:01;;;;;;;;;10.00;8.00;;;;;-143.90;100.00;75784.22;4898561;28;102239;-75
2023/12/02 05:52:28;;;;;;;;;13.67;9.33;;;;;-143.90;100.00;75784.22;4898226;28;102270;-75
2023/12/02 05:54:55;;;;;;;;;8.00;7.33;;;;;-143.90;100.00;75778.00;4898073;28;104121;-75
2023/12/02 05:57:22;;;;;;;;;16.67;13.00;;;;;-143.90;100.00;75782.16;4899243;28;103257;-75
2023/12/02 05:59:50;;;;;;;;;19.00;11.67;;;;;-143.90;100.00;75782.16;4898679;28;102291;-75
2023/12/02 06:02:17;;;;;;;;;17.33;13.33;;;;;-143.90;100.00;75788.34;4888560;28;102271;-74
2023/12/02 06:04:43;;;;;;;;;21.33;16.33;;;;;-143.90;100.00;75786.28;4892540;28;104046;-73
2023/12/02 06:07:10;;;;;;;;;19.67;14.00;;;;;-143.90;100.00;75775.94;4898946;28;102185;-75
2023/12/02 06:09:41;;;;;;;;;27.67;20.33;;;;;-143.90;100.00;75780.09;4897936;28;102077;-76
2023/12/02 06:12:07;;;;;;;;;20.00;16.33;;;;;-143.90;100.00;75782.16;4899936;28;101983;-75
2023/12/02 06:14:34;;;;;;;;;22.67;13.33;;;;;-143.90;100.00;75773.88;4898485;28;104286;-75
2023/12/02 06:17:01;;;;;;;;;13.33;11.00;;;;;-143.90;100.00;75771.81;4893913;28;102509;-75
2023/12/02 06:19:27;;;;;;;;;21.33;16.33;;;;;-143.90;100.00;75771.81;4898584;28;102473;-75
2023/12/02 06:21:54;;;;;;;;;19.00;14.33;;;;;-143.90;100.00;75771.81;4897933;28;103865;-75
2023/12/02 06:24:21;;;;;;;;;19.33;16.67;;;;;-143.90;100.00;75771.81;4898020;28;104066;-75
2023/12/02 06:26:47;;;;;;;;;17.67;16.33;;;;;-143.90;100.00;75773.88;4898468;28;102314;-74
2023/12/02 06:29:15;;;;;;;;;13.33;12.33;;;;;-143.90;100.00;75763.53;4895024;28;102037;-74
2023/12/02 06:31:41;;;;;;;;;17.33;16.00;;;;;-143.90;100.00;75763.53;4900143;28;102219;-74
2023/12/02 06:34:08;;;;;;;;;17.00;13.33;;;;;-143.90;100.00;75763.53;4894696;28;110043;-75
2023/12/02 06:36:35;;;;;;;;;13.67;13.67;;;;;-143.90;100.00;75767.69;4896538;28;102135;-75
2023/12/02 06:39:02;;;;;;;;;14.67;11.67;;;;;-143.90;100.00;75773.88;4897038;28;102154;-75
2023/12/02 06:41:29;;;;;;;;;17.00;14.00;;;;;-143.90;100.00;75792.50;4898527;28;102086;-75
2023/12/02 06:43:55;;;;;;;;;20.00;16.00;;;;;-143.90;100.00;75811.09;4902133;28;103841;-74
2023/12/02 06:46:23;;;;;;;;;17.33;15.33;;;;;-143.90;100.00;75813.16;4896632;28;102338;-74
2023/12/02 06:48:50;;;;;;;;;16.67;15.00;;;;;-143.90;100.00;75825.56;4899134;28;102089;-75
2023/12/02 06:51:17;;;;;;;;;18.00;14.00;;;;;-143.90;100.00;75837.97;4898582;28;102432;-75
2023/12/02 06:53:43;;;;;;;;;15.33;13.00;;;;;-143.90;100.00;75825.56;4896803;28;103541;-73
2023/12/02 06:56:18;;;;;;;;;14.33;13.33;;;;;-143.90;100.00;75813.16;4902407;28;102193;-75
2023/12/02 06:58:44;;;;;;;;;15.33;13.00;;;;;-143.90;100.00;75821.44;4900023;28;102986;-74
2023/12/02 07:01:21;;;;;;;;;13.33;11.00;;;;;-143.90;100.00;75815.22;4904658;28;101994;-75
2023/12/02 07:03:48;;;;;;;;;10.67;9.33;;;;;-143.90;100.00;75804.91;4898125;28;108584;-75
2023/12/02 07:06:15;;;;;;;;;17.00;11.67;;;;;-143.90;100.00;75794.56;4898968;28;102589;-74
2023/12/02 07:08:42;;;;;;;;;19.00;14.33;;;;;-143.90;100.00;75794.56;4901844;28;102358;-75
2023/12/02 07:11:09;;;;;;;;;16.00;13.67;;;;;-143.90;100.00;75804.91;4902485;28;102064;-75
2023/12/02 07:13:35;;;;;;;;;14.67;13.00;;;;;-143.90;100.00;75811.09;4901742;28;104050;-75
2023/12/02 07:16:02;;;;;;;;;24.33;17.67;;;;;-143.90;100.00;75817.31;4901283;28;102823;-75
2023/12/02 07:18:29;;;;;;;;;13.67;8.00;;;;;-143.90;100.00;75831.78;4900098;28;102026;-76
2023/12/02 07:20:56;;;;;;;;;16.33;14.67;;;;;-143.90;100.00;75840.03;4901532;28;102294;-75
2023/12/02 07:23:25;;;;;;;;;18.67;16.00;;;;;-143.90;100.00;75850.38;4899823;28;104204;-75
2023/12/02 07:25:52;;;;;;;;;14.67;12.33;;;;;-143.90;100.00;75854.53;4901265;28;102584;-75
2023/12/02 07:28:18;;;;;;;;;17.67;12.33;;;;;-143.90;100.00;75846.25;4900370;28;102881;-75
2023/12/02 07:30:45;;;;;;;;;15.33;10.33;;;;;-143.90;100.00;75854.53;4903584;28;102246;-74
2023/12/02 07:33:12;;;;;;;;;16.33;13.00;;;;;-143.90;100.00;75856.59;4902032;28;104013;-75
2023/12/02 07:35:38;;;;;;;;;10.33;8.00;;;;;-143.90;100.00;75869.00;4900315;28;102087;-75
2023/12/02 07:38:05;;;;;;;;;7.00;7.00;;;;;-143.90;100.00;75875.19;4901366;28;101940;-75
2023/12/02 07:40:32;;;;;;;;;11.00;8.00;;;;;-143.90;100.00;75873.13;4899394;28;102441;-75
2023/12/02 07:42:58;;;;;;;;;7.67;5.00;;;;;-143.90;100.00;75866.94;4900384;28;104182;-76
2023/12/02 07:45:25;;;;;;;;;11.67;8.00;;;;;-143.90;100.00;75864.84;4899384;28;102324;-75
2023/12/02 07:47:51;;;;;;;;;8.00;7.00;;;;;-143.90;100.00;75858.66;4899086;28;102056;-75
2023/12/02 07:50:18;;;;;;;;;7.67;4.67;;;;;-143.90;100.00;75860.72;4900455;28;103315;-75
2023/12/02 07:52:45;;;;;;;;;18.00;8.00;;;;;-143.90;100.00;75858.66;4898532;28;104252;-71
2023/12/02 07:55:12;;;;;;;;;9.33;5.00;;;;;-143.90;100.00;75852.44;4902094;28;102587;-75
2023/12/02 07:57:39;;;;;;;;;7.00;6.33;;;;;-143.90;100.00;75854.53;4898038;28;103704;-77
2023/12/02 08:00:07;;;;;;;;;4.67;4.33;;;;;-143.90;100.00;75844.19;4898744;28;102058;-78
2023/12/02 08:02:34;;;;;;;;;9.33;6.33;;;;;-143.90;100.00;75837.97;4895730;28;104223;-77
2023/12/02 08:05:01;;;;;;;;;4.67;2.00;;;;;-143.90;100.00;75827.63;4897742;28;102265;-74
2023/12/02 08:07:30;;;;;;;;;5.00;5.00;;;;;-143.90;100.00;75829.72;4897437;28;102197;-76
2023/12/02 08:09:57;;;;;;;;;8.67;7.00;;;;;-143.90;100.00;75852.44;4898290;28;102277;-76
2023/12/02 08:12:24;;;;;;;;;7.67;6.33;;;;;-143.90;100.00;75825.56;4891984;28;104006;-76
2023/12/02 08:14:50;;;;;;;;;10.00;5.00;;;;;-143.90;100.00;75819.38;4895798;28;102205;-76
2023/12/02 08:17:17;;;;;;;;;5.00;5.00;;;;;-143.90;100.00;75813.16;4896014;28;102437;-74
2023/12/02 08:19:44;;;;;;;;;7.00;7.00;;;;;-143.90;100.00;75821.44;4901240;28;102989;-73
2023/12/02 08:22:10;;;;;;;;;9.67;8.67;;;;;-143.90;100.00;75829.72;4902670;28;108932;-76
2023/12/02 08:24:42;;;;;;;;;9.33;6.33;;;;;-143.90;100.00;75811.09;4900097;28;102142;-76
2023/12/02 08:27:09;;;;;;;;;11.33;7.00;;;;;-143.90;100.00;75809.03;4898669;28;102567;-76
2023/12/02 08:29:36;;;;;;;;;10.33;7.67;;;;;-143.90;100.00;75809.03;4900472;28;102794;-77
2023/12/02 08:32:03;;;;;;;;;7.33;5.67;;;;;-143.90;100.00;75763.53;4899662;28;104023;-77
2023/12/02 08:34:30;;;;;;;;;4.33;4.00;;;;;-143.90;100.00;75755.28;4899508;28;102343;-78
2023/12/02 08:36:56;;;;;;;;;7.33;5.00;;;;;-143.90;100.00;75751.13;4899321;28;101985;-78
2023/12/02 08:39:23;;;;;;;;;1.67;1.00;;;;;-143.90;100.00;75759.41;4899485;28;102664;-78
2023/12/02 08:41:50;;;;;;;;;5.67;5.00;;;;;-143.90;100.00;75753.19;4899837;28;104246;-77
2023/12/02 08:44:17;;;;;;;;;8.00;7.00;;;;;-143.90;100.00;75761.47;4899223;28;102019;-77
2023/12/02 08:46:43;;;;;;;;;11.00;7.33;;;;;-143.90;100.00;75773.88;4897267;28;102487;-78
2023/12/02 08:49:10;;;;;;;;;9.33;5.00;;;;;-143.90;100.00;75763.53;4902199;28;102059;-77
2023/12/02 08:51:39;;;;;;;;;12.67;7.67;;;;;-143.90;100.00;75738.72;4899518;28;104162;-77
2023/12/02 08:54:06;;;;;;;;;5.00;5.00;;;;;-143.90;100.00;75724.25;4897586;28;102125;-77
2023/12/02 08:56:33;;;;;;;;;10.00;7.00;;;;;-143.90;100.00;75742.88;4899349;28;103083;-77
2023/12/02 08:58:59;;;;;;;;;7.67;7.00;;;;;-143.90;100.00;75767.69;4899685;28;102039;-78
2023/12/02 09:01:27;;;;;;;;;7.00;7.00;;;;;-143.90;100.00;75771.81;4898943;28;104205;-78
2023/12/02 09:03:54;;;;;;;;;8.33;7.00;;;;;-143.90;100.00;75802.81;4898179;28;102533;-78
2023/12/02 09:06:20;;;;;;;;;7.00;4.33;;;;;-143.90;100.00;75796.63;4897425;28;102300;-77
2023/12/02 09:08:47;;;;;;;;;10.67;7.00;;;;;-143.90;100.00;75817.31;4900275;28;102062;-77
2023/12/02 09:11:14;;;;;;;;;5.67;5.00;;;;;-143.90;100.00;75811.09;4894353;28;104471;-72
2023/12/02 09:13:41;;;;;;;;;10.33;8.67;;;;;-143.90;100.00;75829.72;4902000;28;102045;-77
2023/12/02 09:16:10;;;;;;;;;12.00;10.00;;;;;-143.90;100.00;75821.44;4896393;28;101978;-77
2023/12/02 09:18:37;;;;;;;;;7.67;7.33;;;;;-143.90;100.00;75815.22;4899813;28;102196;-78
2023/12/02 09:21:20;;;;;;;;;7.67;7.00;;;;;-143.90;100.00;75811.09;4899068;28;103347;-77
2023/12/02 09:23:51;;;;;;;;;10.00;8.00;;;;;-143.90;100.00;75796.63;4897226;28;102452;-78
2023/12/02 09:26:28;;;;;;;;;4.33;4.00;;;;;-143.90;100.00;75790.41;4897299;28;102308;-78
2023/12/02 09:28:55;;;;;;;;;11.67;10.67;;;;;-143.90;100.00;75788.34;4896033;28;102084;-77
2023/12/02 09:31:23;;;;;;;;;11.33;10.00;;;;;-143.90;100.00;75794.56;4901072;28;104057;-77
2023/12/02 09:34:03;;;;;;;;;16.00;14.00;;;;;-143.90;100.00;75800.75;4899346;28;103645;-77
2023/12/02 09:36:35;;;;;;;;;10.67;8.67;;;;;-143.90;100.00;75782.16;4896732;28;103638;-78
2023/12/02 09:39:17;;;;;;;;;17.00;15.00;;;;;-143.90;100.00;75773.88;4899709;28;102258;-76
2023/12/02 09:41:51;;;;;;;;;20.33;12.00;;;;;-143.90;100.00;75784.22;4892940;28;108805;-76
2023/12/02 09:44:42;;;;;;;;;17.33;11.67;;;;;-143.90;100.00;75771.81;4896112;28;102515;-77
2023/12/02 09:47:20;;;;;;;;;14.33;13.00;;;;;-143.90;100.00;75761.47;4897287;28;102578;-77
2023/12/02 09:50:02;;;;;;;;;17.33;11.67;;;;;-143.90;100.00;75765.59;4894524;28;102213;-76
2023/12/02 09:52:45;;;;;;;;;18.33;14.00;;;;;-143.90;100.00;75771.81;4897108;28;104752;-77
2023/12/02 09:55:43;;;;;;;;;13.67;10.00;;;;;-143.90;100.00;75767.69;4898999;28;102803;-76
2023/12/02 09:58:22;;;;;;;;;20.00;18.00;;;;;-143.90;100.00;75767.69;4895415;28;103604;-77
2023/12/02 10:01:02;;;;;;;;;17.67;13.67;;;;;-143.90;100.00;75771.81;4896525;28;102383;-77
2023/12/02 10:03:35;;;;;;;;;13.67;9.67;;;;;-143.90;100.00;75782.16;4896453;28;104196;-77
2023/12/02 10:06:42;;;;;;;;;14.67;11.67;;;;;-143.90;100.00;75780.09;4896991;28;102722;-77
2023/12/02 10:09:18;;;;;;;;;21.00;16.33;;;;;-143.90;100.00;75790.41;4874637;28;108147;-77
2023/12/02 10:11:51;;;;;;;;;20.67;14.67;;;;;-143.90;100.00;75773.88;4892835;28;103667;-77
2023/12/02 10:14:21;;;;;;;;;18.00;17.33;;;;;-143.90;100.00;75755.28;4895743;28;104277;-76
2023/12/02 10:16:52;;;;;;;;;16.33;14.00;;;;;-143.90;100.00;75744.94;4898476;28;102584;-77
2023/12/02 10:19:33;;;;;;;;;23.33;19.33;;;;;-143.90;100.00;75732.53;4897564;28;102429;-77
2023/12/02 10:22:02;;;;;;;;;20.00;14.00;;;;;-143.90;100.00;75726.31;4899332;28;102410;-76
2023/12/02 10:24:44;;;;;;;;;27.67;19.33;;;;;-143.90;100.00;75718.06;4898663;28;104064;-77
2023/12/02 10:27:17;;;;;;;;;22.67;20.67;;;;;-143.90;100.00;75709.78;4895656;28;102264;-77
2023/12/02 10:29:57;;;;;;;;;22.67;19.33;;;;;-143.90;100.00;75713.91;4900007;28;102323;-77
2023/12/02 10:32:39;;;;;;;;;23.33;18.67;;;;;-143.90;100.00;75722.19;4899161;28;102711;-77
2023/12/02 10:35:20;;;;;;;;;16.33;15.67;;;;;-143.90;100.00;75697.38;4900351;28;104139;-77
2023/12/02 10:37:56;;;;;;;;;11.00;8.00;;;;;-143.90;100.00;75680.84;4900060;28;102885;-77
2023/12/02 10:40:26;;;;;;;;;19.67;15.67;;;;;-143.90;100.00;75670.50;4898519;28;102118;-77
2023/12/02 10:42:58;;;;;;;;;24.00;17.00;;;;;-143.90;100.00;75676.69;4901675;28;101968;-77
2023/12/02 10:45:28;;;;;;;;;22.00;18.00;;;;;-143.90;100.00;75691.16;4900314;28;104013;-77
2023/12/02 10:47:56;;;;;;;;;29.67;24.67;;;;;-143.90;100.00;75703.56;4898524;28;102730;-77
2023/12/02 10:50:25;;;;;;;;;25.00;21.67;;;;;-143.90;100.00;75687.03;4897474;28;102493;-77
2023/12/02 10:53:01;;;;;;;;;30.00;24.00;;;;;-143.90;100.00;75713.91;4902693;28;102432;-77
2023/12/02 10:55:31;;;;;;;;;30.00;25.33;;;;;-143.90;100.00;75722.19;4901134;28;104181;-77